Terminal Aerodrome Forecast
Issued by NWS

Home | Current Version | Previous Version | Text Only | Print | Product List | Glossary On
Versions: 1 2 3 4 5 6 7 8 9 10 11 12 13 14 15 16 17
554
FTUS43 KDLH 221120
TAFHIB
TAF
KHIB 221120Z 2212/2312 VRB03KT P6SM FEW035
     FM222100 19007KT 3SM -SN OVC025
     FM222200 19006KT 2SM -SN OVC019
     FM230100 18004KT 4SM -SN BKN024
     FM230300 VRB03KT P6SM SCT035=

USA.gov is the U.S. government's official web portal to all federal, state and local government web resources and services.